Time;durP1;ratioP1;P1;durP2;ratioP2;P2;SDS_P1;SDS_P2;PMS_P1;PMS_P2;Temp;Humidity;BMP_temperature;BMP_pressure;BME280_temperature;BME280_humidity;BME280_pressure;Samples;Min_cycle;Max_cycle;Signal;HPM_P1;HPM_P2
2021/12/20 00:00:13;;;;;;;34.05;30.75;;;5.20;90.80;;;;;;5034566;28;20197;-73
2021/12/20 00:02:40;;;;;;;33.83;30.63;;;5.20;91.70;;;;;;5034621;28;20200;-72
2021/12/20 00:05:08;;;;;;;34.40;31.38;;;5.20;91.50;;;;;;5034277;28;20219;-73
2021/12/20 00:07:36;;;;;;;33.75;30.85;;;5.20;91.30;;;;;;5034431;28;20201;-73
2021/12/20 00:10:05;;;;;;;35.35;32.03;;;5.30;91.10;;;;;;5034241;28;20198;-73
2021/12/20 00:12:31;;;;;;;35.03;31.92;;;5.30;91.90;;;;;;5034527;28;20197;-72
2021/12/20 00:14:58;;;;;;;34.80;31.80;;;5.40;90.80;;;;;;5034228;28;20270;-73
2021/12/20 00:17:25;;;;;;;34.80;31.48;;;5.40;90.60;;;;;;5034322;28;20208;-72
2021/12/20 00:19:52;;;;;;;34.00;30.85;;;5.30;90.60;;;;;;5033983;28;20198;-72
2021/12/20 00:22:19;;;;;;;33.17;30.25;;;5.30;90.50;;;;;;5034002;28;20197;-73
2021/12/20 00:24:46;;;;;;;33.20;30.20;;;5.20;91.10;;;;;;5033913;28;20220;-72
2021/12/20 00:27:19;;;;;;;35.70;32.20;;;5.20;91.10;;;;;;5034027;28;20785;-73
2021/12/20 00:29:46;;;;;;;145.68;40.40;;;5.20;90.80;;;;;;5033836;28;20197;-73
2021/12/20 00:32:13;;;;;;;57.17;33.65;;;5.20;90.80;;;;;;5033986;28;20197;-73
2021/12/20 00:34:41;;;;;;;33.75;30.73;;;5.30;91.10;;;;;;5033383;28;20225;-72
2021/12/20 00:40:20;;;;;;;35.53;32.33;;;5.20;91.10;;;;;;5033821;28;20197;-72
2021/12/20 00:42:42;;;;;;;34.17;31.17;;;5.20;90.70;;;;;;5033833;28;20270;-73
2021/12/20 00:45:10;;;;;;;36.17;32.92;;;5.20;90.60;;;;;;5033563;28;20305;-73
2021/12/20 00:47:38;;;;;;;861.70;119.70;;;5.30;90.60;;;;;;5033497;28;20199;-72
2021/12/20 00:50:06;;;;;;;36.60;32.80;;;5.20;94.40;;;;;;5032419;28;20241;-72
2021/12/20 00:52:33;;;;;;;563.53;80.85;;;5.20;94.20;;;;;;5033625;28;20197;-73
2021/12/20 00:55:00;;;;;;;37.35;33.65;;;5.30;96.80;;;;;;5033410;28;20229;-72
2021/12/20 00:57:27;;;;;;;49.38;33.03;;;5.30;95.90;;;;;;5033466;28;20200;-72
2021/12/20 00:59:56;;;;;;;34.30;31.25;;;5.30;95.10;;;;;;5033230;28;20677;-72
2021/12/20 01:02:22;;;;;;;36.30;32.80;;;5.30;96.30;;;;;;5033469;28;20198;-73
2021/12/20 01:04:50;;;;;;;33.55;30.58;;;5.30;94.50;;;;;;5033279;28;20209;-72
2021/12/20 01:07:17;;;;;;;35.25;32.10;;;5.30;94.20;;;;;;5033432;28;20201;-72
2021/12/20 01:09:43;;;;;;;34.03;30.92;;;5.20;93.50;;;;;;5033029;28;20201;-72
2021/12/20 01:12:17;;;;;;;129.10;39.90;;;5.20;92.80;;;;;;5033258;28;20550;-72
2021/12/20 01:14:44;;;;;;;34.55;31.38;;;5.20;93.30;;;;;;5033012;28;20221;-72
2021/12/20 01:17:12;;;;;;;77.13;36.03;;;5.20;93.10;;;;;;5033240;28;20197;-73
2021/12/20 01:19:39;;;;;;;36.42;33.13;;;5.30;93.90;;;;;;5032951;28;20288;-72
2021/12/20 01:22:07;;;;;;;35.53;32.10;;;5.30;93.40;;;;;;5033136;28;20288;-72
2021/12/20 01:24:35;;;;;;;36.42;33.00;;;5.30;94.90;;;;;;5032899;28;20232;-72
2021/12/20 01:27:02;;;;;;;40.22;36.15;;;5.30;91.80;;;;;;5032998;28;20269;-72
2021/12/20 01:29:28;;;;;;;36.47;32.92;;;5.40;91.60;;;;;;5032750;28;20201;-72
2021/12/20 01:31:55;;;;;;;37.63;34.08;;;5.30;90.40;;;;;;5032907;28;20203;-72
2021/12/20 01:34:24;;;;;;;36.05;32.75;;;5.20;90.60;;;;;;5032410;28;20213;-73
2021/12/20 01:36:50;;;;;;;36.30;32.90;;;5.20;90.70;;;;;;5032899;28;20194;-73
2021/12/20 01:39:18;;;;;;;34.30;31.05;;;5.10;91.00;;;;;;5032486;28;20201;-73
2021/12/20 01:41:46;;;;;;;38.05;34.13;;;5.00;91.10;;;;;;5032750;28;20208;-73
2021/12/20 01:44:14;;;;;;;36.33;32.88;;;5.10;91.30;;;;;;5032696;28;20221;-73
2021/12/20 01:46:41;;;;;;;35.85;32.17;;;5.10;90.90;;;;;;5032688;28;20204;-73
2021/12/20 01:49:11;;;;;;;33.50;30.42;;;5.10;93.40;;;;;;5032660;28;20201;-73
2021/12/20 01:52:00;;;;;;;35.22;31.98;;;5.00;95.70;;;;;;5032830;28;20263;-73
2021/12/20 01:54:27;;;;;;;36.67;33.08;;;5.00;94.20;;;;;;5032449;28;20721;-73
2021/12/20 01:56:54;;;;;;;38.15;34.45;;;4.90;93.80;;;;;;5032785;28;20197;-72
2021/12/20 01:59:21;;;;;;;37.47;33.72;;;4.90;93.40;;;;;;5032444;28;20203;-72
2021/12/20 02:01:48;;;;;;;295.65;54.17;;;4.90;93.20;;;;;;5032168;28;20207;-72
2021/12/20 02:04:15;;;;;;;36.28;32.67;;;5.00;94.10;;;;;;5032413;28;20213;-73
2021/12/20 02:06:47;;;;;;;36.92;32.92;;;5.00;94.00;;;;;;5032562;28;20625;-72
2021/12/20 02:09:16;;;;;;;37.67;33.45;;;5.10;93.70;;;;;;5032413;28;20226;-73
2021/12/20 02:11:46;;;;;;;34.88;31.58;;;5.00;94.40;;;;;;5032463;28;20773;-72
2021/12/20 02:14:13;;;;;;;35.60;32.30;;;5.00;96.80;;;;;;5032251;28;20228;-73
2021/12/20 02:16:41;;;;;;;34.63;31.55;;;5.00;95.20;;;;;;5032392;28;20219;-72
2021/12/20 02:19:10;;;;;;;35.92;32.45;;;5.00;94.50;;;;;;5032271;28;20212;-73
2021/12/20 02:21:39;;;;;;;35.58;32.25;;;5.00;93.70;;;;;;5032458;28;20201;-73
2021/12/20 02:24:07;;;;;;;35.58;32.15;;;5.00;93.20;;;;;;5032140;28;20235;-73
2021/12/20 02:26:35;;;;;;;44.97;34.47;;;5.00;93.70;;;;;;5032331;28;20284;-72
2021/12/20 02:29:05;;;;;;;34.13;30.92;;;5.00;93.50;;;;;;5032340;28;20203;-73
2021/12/20 02:39:47;;;;;;;34.88;31.65;;;5.00;97.80;;;;;;5022899;28;20197;-72
2021/12/20 02:42:19;;;;;;;435.20;71.43;;;5.00;97.50;;;;;;5032238;28;20284;-73
2021/12/20 02:44:48;;;;;;;39.58;35.60;;;5.00;98.50;;;;;;5032120;28;20228;-73
2021/12/20 02:47:26;;;;;;;35.92;32.33;;;5.00;96.80;;;;;;5032127;28;20197;-73
2021/12/20 02:49:53;;;;;;;36.45;32.88;;;5.00;96.20;;;;;;5032116;28;20197;-73
2021/12/20 02:52:21;;;;;;;37.78;34.33;;;5.00;94.90;;;;;;5040225;22;20221;-73
2021/12/20 02:54:48;;;;;;;35.00;31.80;;;5.00;93.80;;;;;;5031791;28;20221;-72
2021/12/20 02:57:16;;;;;;;37.42;33.95;;;5.00;93.50;;;;;;5032119;28;20200;-72
2021/12/20 02:59:42;;;;;;;36.67;33.05;;;4.90;93.30;;;;;;5031942;28;20220;-72
2021/12/20 03:02:11;;;;;;;1401.63;195.57;;;4.90;94.10;;;;;;5032038;28;20198;-73
2021/12/20 03:04:38;;;;;;;317.48;58.95;;;4.90;96.70;;;;;;5032032;28;20577;-73
2021/12/20 03:07:08;;;;;;;40.15;35.90;;;5.00;96.50;;;;;;5031943;28;20237;-73
2021/12/20 03:09:41;;;;;;;38.58;34.00;;;5.00;97.80;;;;;;5032046;28;20674;-73
2021/12/20 03:12:10;;;;;;;37.33;33.63;;;5.00;96.20;;;;;;5032021;28;20193;-73
2021/12/20 03:14:40;;;;;;;36.83;32.85;;;4.90;95.40;;;;;;5035315;28;20223;-72
2021/12/20 03:17:08;;;;;;;36.97;33.38;;;4.90;94.70;;;;;;5035441;28;20280;-73
2021/12/20 03:19:35;;;;;;;40.67;36.47;;;5.00;93.60;;;;;;5035246;28;20209;-72
2021/12/20 03:22:03;;;;;;;39.25;35.22;;;4.90;92.70;;;;;;5035534;28;20197;-73
2021/12/20 03:24:30;;;;;;;36.55;32.95;;;4.90;92.60;;;;;;5035077;28;20217;-73
2021/12/20 03:26:59;;;;;;;67.47;36.97;;;4.90;93.20;;;;;;5035275;28;20200;-73
2021/12/20 03:29:25;;;;;;;1313.97;187.25;;;4.90;93.10;;;;;;5035066;28;20292;-72
2021/12/20 03:31:52;;;;;;;35.80;32.22;;;4.90;93.30;;;;;;5035283;28;20200;-72
2021/12/20 03:34:20;;;;;;;1213.45;161.05;;;4.90;93.40;;;;;;5034784;28;20210;-73
2021/12/20 03:36:47;;;;;;;39.00;34.95;;;4.90;96.20;;;;;;5035021;28;20221;-72
2021/12/20 03:39:14;;;;;;;39.80;35.70;;;4.90;97.40;;;;;;5034855;28;20271;-72
2021/12/20 03:41:41;;;;;;;38.40;34.33;;;4.90;96.20;;;;;;5035130;28;20228;-72
2021/12/20 03:44:09;;;;;;;35.95;32.50;;;4.80;96.20;;;;;;5034938;28;20627;-72
2021/12/20 03:46:37;;;;;;;36.15;32.28;;;4.80;95.60;;;;;;5034889;28;20201;-72
2021/12/20 03:49:05;;;;;;;35.88;32.13;;;4.90;94.90;;;;;;5034985;28;20208;-72
2021/12/20 03:51:32;;;;;;;55.70;37.03;;;4.70;93.50;;;;;;5034929;28;20299;-72
2021/12/20 03:53:59;;;;;;;37.90;33.97;;;4.70;93.60;;;;;;5034585;28;20231;-73
2021/12/20 03:56:27;;;;;;;46.15;35.00;;;4.70;95.20;;;;;;5034713;28;20245;-72
2021/12/20 03:58:53;;;;;;;488.70;86.68;;;4.70;94.70;;;;;;5034541;28;20205;-73
2021/12/20 04:01:22;;;;;;;38.50;34.45;;;4.80;99.40;;;;;;5034501;28;20280;-72
2021/12/20 04:03:50;;;;;;;37.58;33.47;;;4.80;98.10;;;;;;5034509;28;20248;-72
2021/12/20 04:06:17;;;;;;;36.03;32.22;;;4.80;97.10;;;;;;5034649;28;20558;-73
2021/12/20 04:08:46;;;;;;;37.63;33.83;;;4.90;96.40;;;;;;5034424;28;20666;-73
2021/12/20 04:11:13;;;;;;;38.53;34.40;;;4.80;95.80;;;;;;5034311;28;20201;-73
2021/12/20 04:13:39;;;;;;;88.47;41.08;;;4.80;95.70;;;;;;5034287;28;20224;-72
2021/12/20 04:16:06;;;;;;;40.20;36.05;;;4.80;96.90;;;;;;5034412;28;20224;-72
2021/12/20 04:18:35;;;;;;;39.00;34.88;;;4.80;97.10;;;;;;5034209;28;20722;-72
2021/12/20 04:21:03;;;;;;;38.15;34.10;;;4.80;95.80;;;;;;5034058;28;20204;-72
2021/12/20 04:23:30;;;;;;;37.25;33.38;;;4.80;95.30;;;;;;5033736;28;20248;-73
2021/12/20 04:25:57;;;;;;;36.25;32.67;;;4.80;95.00;;;;;;5034063;28;20673;-72
2021/12/20 04:28:24;;;;;;;38.78;34.70;;;4.80;94.80;;;;;;5033962;28;20212;-72
2021/12/20 04:30:51;;;;;;;41.30;37.10;;;4.80;94.90;;;;;;5034033;28;20279;-72
2021/12/20 04:33:18;;;;;;;39.80;35.10;;;4.80;94.70;;;;;;5033914;28;20228;-72
2021/12/20 04:35:47;;;;;;;36.30;32.50;;;4.80;94.50;;;;;;5033886;28;20231;-73
2021/12/20 04:38:14;;;;;;;38.92;35.15;;;4.80;94.40;;;;;;5033965;28;20714;-73
2021/12/20 04:40:41;;;;;;;88.13;38.22;;;4.90;94.60;;;;;;5033725;28;20304;-72
2021/12/20 04:43:08;;;;;;;41.42;37.10;;;4.90;94.10;;;;;;5033597;28;20280;-72
2021/12/20 04:45:36;;;;;;;1258.97;170.02;;;4.80;95.80;;;;;;5033819;28;20280;-72
2021/12/20 04:48:04;;;;;;;35.75;31.98;;;4.80;95.80;;;;;;5033739;28;20193;-73
2021/12/20 04:50:31;;;;;;;37.80;33.80;;;4.80;95.90;;;;;;5033577;28;20205;-73
2021/12/20 04:53:00;;;;;;;37.30;33.40;;;4.80;95.30;;;;;;5033757;28;20213;-72
2021/12/20 04:55:28;;;;;;;37.97;34.13;;;4.70;94.70;;;;;;5033455;28;20303;-72
2021/12/20 04:57:56;;;;;;;38.35;34.40;;;4.70;94.60;;;;;;5033626;28;20280;-72
2021/12/20 05:00:26;;;;;;;36.97;33.30;;;4.70;94.50;;;;;;5033474;28;20232;-72
2021/12/20 05:02:52;;;;;;;42.35;34.97;;;4.80;94.40;;;;;;5033713;28;20229;-72
2021/12/20 05:05:22;;;;;;;37.47;33.95;;;4.70;94.50;;;;;;5033628;28;20221;-72
2021/12/20 05:07:49;;;;;;;39.72;35.15;;;4.70;95.60;;;;;;5033226;28;20255;-72
2021/12/20 05:10:26;;;;;;;37.97;34.28;;;4.80;94.70;;;;;;5033045;28;20201;-72
2021/12/20 05:12:54;;;;;;;38.88;34.88;;;4.70;94.00;;;;;;5033318;28;20284;-72
2021/12/20 05:15:22;;;;;;;37.78;34.03;;;4.80;94.20;;;;;;5033139;28;20221;-72
2021/12/20 05:17:49;;;;;;;35.55;31.85;;;4.80;93.90;;;;;;5033261;28;20651;-72
2021/12/20 05:20:16;;;;;;;37.72;33.80;;;4.80;93.90;;;;;;5032942;28;20197;-73
2021/12/20 05:22:43;;;;;;;35.22;31.85;;;4.80;93.90;;;;;;5033066;28;20297;-72
2021/12/20 05:25:11;;;;;;;36.25;32.85;;;4.80;94.10;;;;;;5032917;28;20299;-72
2021/12/20 05:27:39;;;;;;;116.13;39.92;;;4.80;94.30;;;;;;5032989;28;20684;-72
2021/12/20 05:30:09;;;;;;;1999.90;603.25;;;4.80;94.60;;;;;;5032853;28;20548;-72
2021/12/20 05:32:36;;;;;;;1711.10;227.52;;;4.90;97.30;;;;;;5032927;28;20609;-72
2021/12/20 05:35:04;;;;;;;38.25;34.22;;;4.90;98.80;;;;;;5032139;28;20764;-73
2021/12/20 05:37:31;;;;;;;37.97;34.10;;;4.80;98.40;;;;;;5032801;28;20567;-72
2021/12/20 05:39:58;;;;;;;35.92;32.35;;;4.90;97.10;;;;;;5032649;28;20303;-72
2021/12/20 05:42:25;;;;;;;37.28;33.17;;;4.80;96.00;;;;;;5032995;28;20225;-73
2021/12/20 05:44:54;;;;;;;109.32;40.10;;;4.80;95.90;;;;;;5032827;28;20219;-72
2021/12/20 05:47:23;;;;;;;37.90;34.03;;;4.80;95.90;;;;;;5032674;28;20198;-72
2021/12/20 05:49:50;;;;;;;38.17;33.25;;;4.80;95.40;;;;;;5032537;28;20201;-73
2021/12/20 05:52:17;;;;;;;40.00;36.05;;;4.80;94.80;;;;;;5032668;28;20200;-72
2021/12/20 05:54:44;;;;;;;1999.90;632.25;;;4.80;95.00;;;;;;5032682;28;20313;-72
2021/12/20 05:57:11;;;;;;;54.17;34.55;;;4.80;99.60;;;;;;5032572;28;20260;-72
2021/12/20 05:59:38;;;;;;;38.92;34.78;;;4.90;99.90;;;;;;5032461;28;20296;-72
2021/12/20 06:02:06;;;;;;;37.65;32.55;;;4.90;98.30;;;;;;5032543;28;20284;-72
2021/12/20 06:04:33;;;;;;;37.85;33.78;;;4.90;97.50;;;;;;5032689;28;20328;-72
2021/12/20 06:07:04;;;;;;;36.67;32.88;;;4.90;96.00;;;;;;5032664;28;20202;-72
2021/12/20 06:09:31;;;;;;;37.70;33.67;;;4.80;95.00;;;;;;5032443;28;20205;-72
2021/12/20 06:11:59;;;;;;;35.47;32.00;;;4.70;95.30;;;;;;5032587;28;20562;-73
2021/12/20 06:14:27;;;;;;;68.65;37.63;;;4.70;95.20;;;;;;5032301;28;20221;-72
2021/12/20 06:16:55;;;;;;;1999.90;390.40;;;4.70;95.30;;;;;;5032475;28;20798;-72
2021/12/20 06:19:24;;;;;;;38.08;33.70;;;4.70;95.90;;;;;;5032266;28;20307;-72
2021/12/20 06:21:51;;;;;;;36.22;32.47;;;4.70;97.50;;;;;;5032422;28;20201;-72
2021/12/20 06:24:18;;;;;;;36.85;31.95;;;4.80;96.50;;;;;;5032338;28;20304;-72
2021/12/20 06:26:45;;;;;;;35.85;32.25;;;4.80;97.40;;;;;;5032261;28;20198;-71
2021/12/20 06:29:12;;;;;;;36.15;32.35;;;4.70;96.40;;;;;;5032078;28;20729;-72
2021/12/20 06:31:39;;;;;;;35.45;31.85;;;4.70;96.20;;;;;;5032428;28;20200;-72
2021/12/20 06:34:06;;;;;;;33.30;29.98;;;4.70;96.10;;;;;;5031860;28;20590;-72
2021/12/20 06:36:35;;;;;;;36.63;33.00;;;4.70;95.60;;;;;;5032182;28;20213;-72
2021/12/20 06:39:01;;;;;;;34.70;31.10;;;4.90;95.20;;;;;;5032217;28;20201;-72
2021/12/20 06:41:28;;;;;;;35.92;32.45;;;4.80;94.40;;;;;;5032614;28;20239;-71
2021/12/20 06:43:56;;;;;;;317.65;62.05;;;4.80;94.50;;;;;;5032399;28;20225;-71
2021/12/20 06:46:25;;;;;;;36.42;32.60;;;4.70;96.30;;;;;;5032637;28;20605;-72
2021/12/20 06:48:52;;;;;;;40.25;36.05;;;4.80;95.80;;;;;;5036032;28;20247;-72
2021/12/20 06:51:19;;;;;;;36.95;33.00;;;4.80;95.70;;;;;;5035929;28;20623;-72
2021/12/20 06:53:47;;;;;;;37.03;33.42;;;4.80;95.00;;;;;;5035811;28;20260;-72
2021/12/20 06:56:14;;;;;;;34.25;30.95;;;4.70;94.90;;;;;;5035834;28;20312;-72
2021/12/20 06:58:41;;;;;;;35.63;31.45;;;4.70;94.60;;;;;;5035789;28;20203;-72
2021/12/20 07:01:08;;;;;;;37.92;33.97;;;4.70;94.40;;;;;;5035584;28;20201;-72
2021/12/20 07:03:34;;;;;;;37.05;33.15;;;4.80;94.50;;;;;;5035658;28;20221;-71
2021/12/20 07:06:01;;;;;;;36.08;32.55;;;4.80;94.10;;;;;;5035657;28;20205;-72
2021/12/20 07:08:28;;;;;;;37.63;33.65;;;4.70;93.90;;;;;;5035652;28;20549;-72
2021/12/20 07:10:57;;;;;;;36.85;33.03;;;4.60;94.20;;;;;;5035455;28;20229;-72
2021/12/20 07:13:24;;;;;;;37.50;33.55;;;4.50;94.70;;;;;;5035861;28;20205;-72
2021/12/20 07:15:51;;;;;;;37.25;32.85;;;4.50;94.80;;;;;;5035587;28;20220;-72
2021/12/20 07:18:18;;;;;;;38.60;34.55;;;4.60;94.50;;;;;;5035556;28;20228;-72
2021/12/20 07:20:45;;;;;;;36.80;33.22;;;4.60;94.40;;;;;;5035322;28;20197;-72
2021/12/20 07:23:12;;;;;;;34.60;30.95;;;4.70;94.40;;;;;;5035259;28;20280;-72
2021/12/20 07:25:38;;;;;;;36.15;32.55;;;4.70;94.40;;;;;;5035354;28;20197;-72
2021/12/20 07:28:08;;;;;;;37.08;33.28;;;4.70;94.30;;;;;;5035279;28;20201;-72
2021/12/20 07:30:35;;;;;;;34.08;30.95;;;4.70;94.20;;;;;;5035066;28;20559;-72
2021/12/20 07:33:02;;;;;;;34.75;31.25;;;4.70;94.20;;;;;;5035085;28;20297;-72
2021/12/20 07:35:29;;;;;;;36.55;32.63;;;4.80;94.40;;;;;;5035188;28;20225;-72
2021/12/20 07:37:59;;;;;;;39.83;33.00;;;4.90;94.40;;;;;;5034848;28;20217;-72
2021/12/20 07:40:26;;;;;;;37.25;33.65;;;4.90;94.40;;;;;;5034934;28;20566;-72
2021/12/20 07:42:53;;;;;;;35.55;31.92;;;5.00;94.80;;;;;;5035249;28;20202;-72
2021/12/20 07:45:22;;;;;;;34.75;31.27;;;5.00;94.40;;;;;;5035056;28;20574;-72
2021/12/20 07:47:50;;;;;;;35.83;32.30;;;5.00;93.90;;;;;;5035030;28;20190;-72
2021/12/20 07:50:18;;;;;;;36.30;32.80;;;5.00;93.50;;;;;;5034625;28;20193;-72
2021/12/20 07:52:46;;;;;;;34.38;31.08;;;4.90;93.30;;;;;;5034722;28;20296;-72
2021/12/20 07:55:13;;;;;;;35.65;31.98;;;5.00;93.00;;;;;;5034678;28;20213;-72
2021/12/20 07:57:40;;;;;;;36.85;33.25;;;5.00;92.70;;;;;;5034691;28;20746;-72
2021/12/20 08:00:10;;;;;;;35.20;31.70;;;4.90;92.90;;;;;;5033751;28;20705;-72
2021/12/20 08:02:39;;;;;;;35.85;32.50;;;4.90;93.50;;;;;;5034520;28;20203;-72
2021/12/20 08:05:06;;;;;;;35.20;31.80;;;4.90;93.40;;;;;;5034462;28;20228;-72
2021/12/20 08:07:33;;;;;;;35.13;31.70;;;5.00;93.10;;;;;;5034618;28;20196;-72
2021/12/20 08:10:00;;;;;;;36.13;32.60;;;5.10;92.80;;;;;;5034374;28;20746;-72
2021/12/20 08:12:27;;;;;;;32.88;29.58;;;5.10;92.50;;;;;;5034258;28;20573;-72
2021/12/20 08:14:54;;;;;;;34.85;31.40;;;5.10;92.40;;;;;;5034323;28;20217;-72
2021/12/20 08:17:21;;;;;;;34.58;31.27;;;5.20;92.50;;;;;;5034313;28;20324;-72
2021/12/20 08:19:49;;;;;;;36.22;32.58;;;5.30;92.40;;;;;;5034147;28;20279;-72
2021/12/20 08:22:16;;;;;;;35.75;31.95;;;5.40;92.20;;;;;;5034310;28;20536;-72
2021/12/20 08:24:43;;;;;;;35.45;31.73;;;5.40;92.20;;;;;;5034181;28;20253;-72
2021/12/20 08:27:10;;;;;;;116.45;38.30;;;5.40;92.00;;;;;;5034238;28;20666;-72
2021/12/20 08:29:36;;;;;;;1999.90;497.92;;;5.50;92.30;;;;;;5034097;28;20200;-72
2021/12/20 08:32:04;;;;;;;34.53;31.05;;;5.50;94.30;;;;;;5034165;28;20240;-72
2021/12/20 08:34:31;;;;;;;35.85;32.25;;;5.60;94.20;;;;;;5033649;28;20218;-72
2021/12/20 08:37:01;;;;;;;35.10;31.35;;;5.70;93.00;;;;;;5033825;28;20222;-72
2021/12/20 08:39:28;;;;;;;35.78;32.25;;;5.60;92.30;;;;;;5033846;28;20204;-72
2021/12/20 08:41:56;;;;;;;34.35;30.85;;;5.60;92.10;;;;;;5033890;28;20670;-72
2021/12/20 08:44:23;;;;;;;34.10;30.80;;;5.50;92.20;;;;;;5033598;28;20308;-72
2021/12/20 08:46:50;;;;;;;35.33;32.13;;;5.60;92.40;;;;;;5033825;28;20194;-72
2021/12/20 08:49:17;;;;;;;37.25;33.47;;;5.70;92.50;;;;;;5033641;28;20193;-72
2021/12/20 08:51:45;;;;;;;35.85;32.63;;;5.80;91.90;;;;;;5033623;28;20247;-72
2021/12/20 08:54:14;;;;;;;36.33;32.63;;;5.60;91.20;;;;;;5033446;28;20260;-72
2021/12/20 08:56:41;;;;;;;35.15;31.95;;;5.60;91.10;;;;;;5033548;28;20205;-72
2021/12/20 08:59:08;;;;;;;34.88;31.58;;;5.60;91.10;;;;;;5033491;28;20237;-72
2021/12/20 09:01:36;;;;;;;37.33;33.58;;;5.70;91.40;;;;;;5033577;28;20237;-72
2021/12/20 09:04:04;;;;;;;38.35;34.42;;;5.70;91.30;;;;;;5033400;28;20248;-72
2021/12/20 09:06:32;;;;;;;40.72;36.60;;;5.70;91.20;;;;;;5033443;28;20288;-72
2021/12/20 09:08:59;;;;;;;38.25;34.25;;;5.70;90.40;;;;;;5033296;28;20681;-72
2021/12/20 09:11:28;;;;;;;38.33;34.33;;;5.60;90.10;;;;;;5032317;28;20292;-72
2021/12/20 09:13:55;;;;;;;40.10;36.30;;;5.70;90.10;;;;;;5033144;28;20225;-72
2021/12/20 09:16:22;;;;;;;42.03;37.75;;;5.80;89.20;;;;;;5033249;28;20201;-72
2021/12/20 09:18:49;;;;;;;39.50;35.55;;;5.60;89.50;;;;;;5033224;28;20220;-72
2021/12/20 09:21:16;;;;;;;39.88;36.03;;;5.70;90.30;;;;;;5033122;28;20208;-72
2021/12/20 09:23:44;;;;;;;41.63;37.42;;;5.80;90.90;;;;;;5033075;28;20225;-72
2021/12/20 09:26:11;;;;;;;39.20;35.50;;;6.00;88.80;;;;;;5033005;28;20290;-72
2021/12/20 09:28:39;;;;;;;40.58;36.58;;;6.00;88.30;;;;;;5033246;28;20194;-72
2021/12/20 09:31:07;;;;;;;40.65;36.63;;;6.00;87.90;;;;;;5032889;28;20207;-72
2021/12/20 09:33:38;;;;;;;39.85;36.10;;;5.80;88.10;;;;;;5032803;28;20221;-72
2021/12/20 09:36:06;;;;;;;40.60;36.65;;;5.80;88.60;;;;;;5033110;28;20193;-71
2021/12/20 09:38:33;;;;;;;41.45;37.45;;;5.90;88.80;;;;;;5032650;28;20217;-72
2021/12/20 09:41:59;;;;;;;40.35;36.25;;;6.00;88.00;;;;;;5032875;28;20711;-71
2021/12/20 09:44:06;;;;;;;42.13;37.92;;;6.00;87.50;;;;;;5032828;28;20228;-72
2021/12/20 09:46:33;;;;;;;41.97;37.47;;;5.90;88.90;;;;;;5032814;28;20197;-72
2021/12/20 09:49:00;;;;;;;39.08;34.92;;;5.90;88.40;;;;;;5032643;28;20194;-72
2021/12/20 09:51:27;;;;;;;40.38;36.42;;;6.00;88.20;;;;;;5032602;28;20204;-72
2021/12/20 09:53:55;;;;;;;40.08;36.20;;;6.00;87.30;;;;;;5032423;28;20227;-72
2021/12/20 09:56:25;;;;;;;37.47;33.50;;;6.10;86.90;;;;;;5032693;28;20204;-72
2021/12/20 09:58:54;;;;;;;39.13;35.42;;;6.00;87.40;;;;;;5032684;28;20586;-72
2021/12/20 10:01:23;;;;;;;40.10;35.85;;;6.10;87.50;;;;;;5032664;28;20203;-72
2021/12/20 10:03:50;;;;;;;41.35;37.15;;;6.10;87.70;;;;;;5032609;28;20217;-72
2021/12/20 10:06:18;;;;;;;39.75;36.00;;;6.00;88.10;;;;;;5032707;28;20193;-72
2021/12/20 10:08:50;;;;;;;44.38;39.38;;;6.10;88.70;;;;;;5032575;28;20213;-72
2021/12/20 10:11:22;;;;;;;49.28;39.30;;;6.10;89.40;;;;;;5032476;28;20300;-72
2021/12/20 10:13:50;;;;;;;43.83;37.40;;;6.00;89.40;;;;;;5032249;28;20217;-72
2021/12/20 10:16:19;;;;;;;38.75;35.05;;;6.10;89.00;;;;;;5032410;28;20193;-72
2021/12/20 10:18:49;;;;;;;39.42;35.63;;;6.10;88.00;;;;;;5032288;28;20213;-72
2021/12/20 10:21:17;;;;;;;43.97;39.28;;;6.40;87.60;;;;;;5032539;28;20203;-72
2021/12/20 10:23:46;;;;;;;43.40;39.15;;;6.60;86.40;;;;;;5036392;28;20217;-72
2021/12/20 10:26:16;;;;;;;41.45;37.65;;;6.60;85.70;;;;;;5036384;28;20676;-72
2021/12/20 10:28:44;;;;;;;44.85;40.45;;;6.70;86.00;;;;;;5036369;28;20197;-72
2021/12/20 10:31:13;;;;;;;43.55;39.25;;;6.90;84.80;;;;;;5036278;28;20728;-72
2021/12/20 10:33:40;;;;;;;38.65;34.90;;;6.90;84.80;;;;;;5035990;28;20221;-72
2021/12/20 10:36:13;;;;;;;38.53;34.92;;;6.80;84.40;;;;;;5036235;28;20662;-72
2021/12/20 10:38:41;;;;;;;35.22;32.22;;;6.60;83.90;;;;;;5036079;28;20219;-72
2021/12/20 10:41:12;;;;;;;33.38;30.70;;;6.70;82.90;;;;;;5036096;28;20650;-72
2021/12/20 10:43:47;;;;;;;34.15;31.25;;;6.70;81.90;;;;;;5035960;28;20649;-72
2021/12/20 10:46:17;;;;;;;33.33;30.63;;;6.80;81.80;;;;;;5036187;28;20200;-72
2021/12/20 10:48:45;;;;;;;32.75;30.15;;;6.80;81.70;;;;;;5036001;28;20204;-72
2021/12/20 10:51:26;;;;;;;31.13;28.20;;;6.80;80.40;;;;;;5035947;28;20283;-72
2021/12/20 10:53:59;;;;;;;28.05;25.80;;;6.90;81.60;;;;;;5035694;28;20312;-72
2021/12/20 10:56:27;;;;;;;33.53;30.30;;;6.70;80.60;;;;;;5035876;28;20263;-72
2021/12/20 10:58:56;;;;;;;30.65;28.30;;;6.80;79.40;;;;;;5035635;28;20228;-72
2021/12/20 11:01:44;;;;;;;31.67;29.17;;;6.90;78.50;;;;;;5035682;28;20288;-72
2021/12/20 11:04:15;;;;;;;36.35;32.55;;;7.00;78.30;;;;;;5035551;28;20232;-72
2021/12/20 11:09:34;;;;;;;36.35;33.15;;;6.70;78.90;;;;;;5035521;28;20196;-72
2021/12/20 11:12:03;;;;;;;34.70;31.95;;;6.90;78.90;;;;;;5035701;28;20331;-72
2021/12/20 11:14:32;;;;;;;33.80;31.00;;;7.00;78.50;;;;;;5035475;28;20218;-72
2021/12/20 11:17:01;;;;;;;34.03;30.92;;;7.10;80.50;;;;;;5035657;28;20193;-72
2021/12/20 11:19:33;;;;;;;35.47;32.35;;;7.20;80.30;;;;;;5036339;22;20226;-72
2021/12/20 11:22:08;;;;;;;32.47;29.90;;;7.40;79.80;;;;;;5015643;28;20205;-72
2021/12/20 11:24:38;;;;;;;34.08;31.25;;;7.70;80.10;;;;;;5015367;28;20213;-72
2021/12/20 11:27:08;;;;;;;34.20;31.55;;;7.70;80.50;;;;;;5015450;28;20198;-72
2021/12/20 11:29:36;;;;;;;33.10;30.50;;;7.70;77.20;;;;;;5015322;28;20433;-72
2021/12/20 11:32:03;;;;;;;35.33;31.77;;;7.90;77.00;;;;;;5015496;28;20208;-72
2021/12/20 11:34:30;;;;;;;34.50;31.58;;;8.00;76.50;;;;;;5013939;28;20210;-72
2021/12/20 11:36:58;;;;;;;34.15;31.45;;;8.10;75.50;;;;;;5015438;28;20200;-72
2021/12/20 11:39:27;;;;;;;33.83;31.27;;;8.30;75.70;;;;;;5014937;28;20221;-72
2021/12/20 11:41:54;;;;;;;32.77;30.07;;;8.50;73.90;;;;;;5015425;28;20457;-72
2021/12/20 11:44:25;;;;;;;32.17;29.70;;;8.70;73.10;;;;;;5015155;28;20476;-72
2021/12/20 11:47:12;;;;;;;32.37;29.77;;;8.70;70.60;;;;;;5015525;28;20528;-72
2021/12/20 11:49:39;;;;;;;33.00;30.10;;;8.60;71.90;;;;;;5012871;28;20524;-72
2021/12/20 11:52:14;;;;;;;30.57;28.07;;;8.50;71.90;;;;;;5015323;28;20496;-72
2021/12/20 11:54:49;;;;;;;33.57;30.93;;;8.60;71.10;;;;;;5014924;28;20480;-72
2021/12/20 11:57:42;;;;;;;32.10;29.60;;;8.50;73.30;;;;;;5014937;28;20474;-73
2021/12/20 12:00:30;;;;;;;32.60;29.90;;;8.30;71.80;;;;;;5014645;28;20515;-72
2021/12/20 12:03:00;;;;;;;32.67;30.17;;;8.50;76.90;;;;;;5014944;28;20544;-73
2021/12/20 12:05:33;;;;;;;31.17;28.67;;;8.70;74.20;;;;;;5014738;28;20483;-72
2021/12/20 12:08:27;;;;;;;31.63;29.23;;;8.70;73.50;;;;;;5014788;28;20537;-72
2021/12/20 12:10:58;;;;;;;32.67;30.27;;;8.70;72.60;;;;;;5014523;28;20453;-73
2021/12/20 12:13:27;;;;;;;35.97;32.97;;;8.50;72.00;;;;;;5014617;28;20501;-72
2021/12/20 12:16:01;;;;;;;38.80;35.70;;;8.40;72.80;;;;;;5014712;28;20463;-73
2021/12/20 12:18:46;;;;;;;37.42;34.22;;;8.10;74.00;;;;;;5014350;28;20487;-72
2021/12/20 12:21:43;;;;;;;38.38;35.08;;;7.80;76.40;;;;;;5014477;28;20285;-72
2021/12/20 12:24:11;;;;;;;39.85;36.70;;;7.60;76.80;;;;;;5014440;28;20226;-72
2021/12/20 12:26:42;;;;;;;36.30;33.08;;;7.50;78.10;;;;;;5014401;28;20232;-72
2021/12/20 12:29:16;;;;;;;36.38;33.17;;;7.50;76.80;;;;;;5014262;28;20198;-72
2021/12/20 12:31:56;;;;;;;36.25;33.15;;;7.50;76.60;;;;;;5014328;28;20209;-72
2021/12/20 12:34:24;;;;;;;35.80;32.67;;;7.50;76.40;;;;;;5013985;28;20225;-72
2021/12/20 12:36:51;;;;;;;35.15;32.35;;;7.40;77.20;;;;;;5014140;28;20651;-72
2021/12/20 12:39:25;;;;;;;35.60;32.50;;;7.30;78.00;;;;;;5013773;28;20214;-72
2021/12/20 12:41:57;;;;;;;34.53;31.63;;;7.20;77.70;;;;;;5014427;28;20217;-72
2021/12/20 12:44:27;;;;;;;35.65;32.63;;;7.00;78.80;;;;;;5013896;28;20280;-72
2021/12/20 12:47:07;;;;;;;35.80;32.80;;;6.80;78.90;;;;;;5014033;28;20201;-72
2021/12/20 12:49:51;;;;;;;34.80;31.58;;;6.80;79.60;;;;;;5013846;28;20194;-72
2021/12/20 12:52:41;;;;;;;34.15;31.27;;;6.80;80.20;;;;;;5013949;28;20228;-72
2021/12/20 12:55:15;;;;;;;36.17;32.95;;;6.80;79.30;;;;;;5009376;28;20317;-72
2021/12/20 12:57:44;;;;;;;35.83;32.50;;;6.70;78.90;;;;;;5013928;28;20209;-72